Time;durP1;ratioP1;P1;durP2;ratioP2;P2;SDS_P1;SDS_P2;PMS_P1;PMS_P2;Temp;Humidity;BMP_temperature;BMP_pressure;BME280_temperature;BME280_humidity;BME280_pressure;Samples;Min_cycle;Max_cycle;Signal;HPM_P1;HPM_P2
2022/06/25 00:02:42;;;;;;;2.92;0.98;;;23.70;54.90;;;;;;6138790;28;20157;-43
2022/06/25 00:05:44;;;;;;;3.05;1.20;;;23.80;55.00;;;;;;6131430;28;20065;-43
2022/06/25 00:08:47;;;;;;;3.67;1.13;;;23.50;54.80;;;;;;6136783;28;20181;-42
2022/06/25 00:15:08;;;;;;;2.42;0.90;;;23.80;54.90;;;;;;6140627;28;20034;-43
2022/06/25 00:18:11;;;;;;;2.72;0.93;;;23.80;55.10;;;;;;6124875;28;20177;-47
2022/06/25 00:21:12;;;;;;;3.65;1.30;;;23.80;54.90;;;;;;6136097;28;20053;-43
2022/06/25 00:24:16;;;;;;;3.47;1.45;;;23.70;54.80;;;;;;6133494;28;20241;-44
2022/06/25 00:27:18;;;;;;;2.90;1.10;;;23.80;54.80;;;;;;6135888;28;20097;-46
2022/06/25 00:30:20;;;;;;;4.63;1.10;;;23.70;54.70;;;;;;6131106;28;20521;-43
2022/06/25 00:33:22;;;;;;;2.83;0.90;;;23.70;54.70;;;;;;6122590;28;20065;-42
2022/06/25 00:36:23;;;;;;;2.08;0.88;;;23.70;54.70;;;;;;6135216;28;20043;-43
2022/06/25 00:39:25;;;;;;;2.00;1.02;;;23.70;54.60;;;;;;6135565;28;20836;-49
2022/06/25 00:42:28;;;;;;;2.67;0.85;;;23.70;54.50;;;;;;6135147;28;20375;-47
2022/06/25 00:45:30;;;;;;;2.85;0.82;;;23.80;54.60;;;;;;6133047;28;20291;-43
2022/06/25 00:48:31;;;;;;;2.35;0.77;;;23.80;54.50;;;;;;6136721;28;21161;-45
2022/06/25 00:51:35;;;;;;;2.20;0.70;;;23.70;54.40;;;;;;6146065;28;20899;-46
2022/06/25 00:54:39;;;;;;;1.45;0.63;;;23.70;54.40;;;;;;6142771;28;20078;-45
2022/06/25 00:57:43;;;;;;;4.93;1.00;;;23.70;54.30;;;;;;6144602;28;20154;-42
2022/06/25 01:00:45;;;;;;;4.03;0.90;;;23.70;54.20;;;;;;6130717;28;20046;-43
2022/06/25 01:03:47;;;;;;;2.75;0.80;;;23.70;54.20;;;;;;6143268;28;20101;-44
2022/06/25 01:06:49;;;;;;;2.92;0.85;;;23.70;54.20;;;;;;6147173;28;20043;-46
2022/06/25 01:09:52;;;;;;;1.65;0.68;;;23.70;54.10;;;;;;6145455;28;20046;-46
2022/06/25 01:12:54;;;;;;;1.73;0.50;;;23.70;54.60;;;;;;6143887;28;20031;-45
2022/06/25 01:15:56;;;;;;;0.82;0.40;;;23.70;54.10;;;;;;6144229;28;20872;-44
2022/06/25 01:18:58;;;;;;;1.98;0.70;;;23.70;54.00;;;;;;6140993;28;20042;-43
2022/06/25 01:22:03;;;;;;;1.42;0.57;;;23.60;53.90;;;;;;6140138;28;20046;-45
2022/06/25 01:25:08;;;;;;;2.03;0.50;;;23.70;53.90;;;;;;6129092;28;20042;-46
2022/06/25 01:28:09;;;;;;;1.40;0.52;;;23.70;53.80;;;;;;6117160;28;20042;-45
2022/06/25 01:31:11;;;;;;;0.95;0.50;;;23.70;54.40;;;;;;6143919;28;20050;-45
2022/06/25 01:34:12;;;;;;;1.60;0.68;;;23.70;53.70;;;;;;6144813;28;20035;-45
2022/06/25 01:37:14;;;;;;;2.38;0.60;;;23.80;53.80;;;;;;6140639;28;20053;-47
2022/06/25 01:40:16;;;;;;;1.27;0.45;;;23.70;53.70;;;;;;6147985;28;20050;-46
2022/06/25 01:43:18;;;;;;;1.33;0.50;;;23.60;53.60;;;;;;6138218;28;20919;-43
2022/06/25 01:46:21;;;;;;;1.15;0.50;;;23.70;53.60;;;;;;6150499;28;20049;-44
2022/06/25 01:49:23;;;;;;;0.30;0.20;;;23.60;53.40;;;;;;6149074;28;20041;-48
2022/06/25 01:52:25;;;;;;;0.93;0.35;;;23.70;53.40;;;;;;6147607;28;20050;-45
2022/06/25 01:55:27;;;;;;;0.98;0.28;;;23.60;53.30;;;;;;6145951;28;20120;-44
2022/06/25 01:58:29;;;;;;;1.95;0.47;;;23.70;53.30;;;;;;6149649;28;20042;-48
2022/06/25 02:01:31;;;;;;;0.75;0.50;;;23.60;53.20;;;;;;6143861;28;20387;-45
2022/06/25 02:04:32;;;;;;;0.82;0.40;;;23.80;53.30;;;;;;6136211;28;20585;-44
2022/06/25 02:07:36;;;;;;;0.82;0.30;;;23.60;53.10;;;;;;6132514;28;20459;-43
2022/06/25 02:10:37;;;;;;;1.17;0.30;;;23.60;53.10;;;;;;6137552;28;20226;-46
2022/06/25 02:13:39;;;;;;;1.25;0.40;;;23.60;53.00;;;;;;6132273;28;20165;-42
2022/06/25 02:16:41;;;;;;;0.57;0.40;;;23.60;53.00;;;;;;6134731;28;20290;-44
2022/06/25 02:19:43;;;;;;;0.43;0.22;;;23.60;53.00;;;;;;6135648;28;20049;-45
2022/06/25 02:22:45;;;;;;;0.90;0.38;;;23.60;52.90;;;;;;6135849;28;20436;-46
2022/06/25 02:25:48;;;;;;;0.50;0.30;;;23.50;52.80;;;;;;6135301;28;20073;-42
2022/06/25 02:28:50;;;;;;;0.40;0.20;;;23.60;52.80;;;;;;6136797;28;20542;-45
2022/06/25 02:31:51;;;;;;;0.57;0.30;;;23.70;52.80;;;;;;6134375;28;20538;-45
2022/06/25 02:34:54;;;;;;;1.02;0.30;;;23.60;52.70;;;;;;6137246;28;20046;-43
2022/06/25 02:37:56;;;;;;;0.57;0.30;;;23.60;52.70;;;;;;6122905;28;20077;-46
2022/06/25 02:41:01;;;;;;;1.05;0.47;;;23.40;52.60;;;;;;6138995;28;20045;-43
2022/06/25 02:44:09;;;;;;;0.32;0.20;;;23.60;52.60;;;;;;6139418;28;20353;-46
2022/06/25 02:47:21;;;;;;;0.25;0.10;;;23.60;52.60;;;;;;6138791;28;20072;-43
2022/06/25 02:50:37;;;;;;;0.70;0.30;;;23.70;52.60;;;;;;6136046;28;20468;-44
2022/06/25 02:53:40;;;;;;;0.65;0.28;;;23.60;52.60;;;;;;6140255;28;20046;-43
2022/06/25 02:59:58;;;;;;;1.90;0.38;;;23.50;52.50;;;;;;6139721;28;20054;-42
2022/06/25 03:03:00;;;;;;;0.35;0.25;;;23.60;52.50;;;;;;6141030;28;20065;-43
2022/06/25 03:06:02;;;;;;;0.52;0.20;;;23.50;52.40;;;;;;6140228;28;20073;-47
2022/06/25 03:09:05;;;;;;;0.35;0.20;;;23.80;52.50;;;;;;6143590;28;20664;-45
2022/06/25 03:12:08;;;;;;;0.45;0.15;;;23.40;52.20;;;;;;6137221;28;20583;-44
2022/06/25 03:15:12;;;;;;;0.20;0.15;;;23.50;52.20;;;;;;6139069;28;20141;-44
2022/06/25 03:18:15;;;;;;;0.30;0.10;;;23.50;52.20;;;;;;6138109;28;20054;-44
2022/06/25 03:21:32;;;;;;;0.50;0.30;;;23.40;52.20;;;;;;6137336;28;20347;-42
2022/06/25 03:24:38;;;;;;;0.35;0.10;;;23.40;52.10;;;;;;6138531;28;20405;-44
2022/06/25 03:27:40;;;;;;;0.20;0.15;;;23.50;52.20;;;;;;6135892;28;20945;-46
2022/06/25 03:30:47;;;;;;;0.20;0.20;;;23.50;52.20;;;;;;6136728;28;20066;-46
2022/06/25 03:33:49;;;;;;;0.30;0.20;;;23.50;52.10;;;;;;6140129;28;20170;-45
2022/06/25 03:36:59;;;;;;;0.50;0.20;;;23.40;52.10;;;;;;6130964;28;20372;-44
2022/06/25 03:40:02;;;;;;;0.38;0.20;;;23.40;52.10;;;;;;6140342;28;20070;-44
2022/06/25 03:43:04;;;;;;;0.38;0.20;;;23.60;52.10;;;;;;6139617;28;20554;-43
2022/06/25 03:46:09;;;;;;;0.65;0.30;;;23.40;52.00;;;;;;6140147;28;20058;-46
2022/06/25 03:49:11;;;;;;;0.95;0.22;;;23.50;52.00;;;;;;6142479;28;20041;-44
2022/06/25 03:52:25;;;;;;;0.70;0.30;;;23.50;52.00;;;;;;6141109;28;20081;-46
2022/06/25 03:55:28;;;;;;;0.60;0.30;;;23.50;52.00;;;;;;6143233;28;20344;-43
2022/06/25 03:58:51;;;;;;;0.43;0.20;;;23.40;51.90;;;;;;6132814;28;20891;-45
2022/06/25 04:01:52;;;;;;;0.60;0.30;;;23.40;51.90;;;;;;6119624;28;20062;-43
2022/06/25 04:04:55;;;;;;;0.57;0.20;;;23.40;51.90;;;;;;6140654;28;20633;-44
2022/06/25 04:07:56;;;;;;;0.30;0.10;;;23.50;52.00;;;;;;6143304;28;20078;-43
2022/06/25 04:10:59;;;;;;;1.10;0.30;;;23.30;51.90;;;;;;6125926;28;20324;-45
2022/06/25 04:14:03;;;;;;;0.47;0.22;;;23.30;51.90;;;;;;6140474;28;20041;-43
2022/06/25 04:17:06;;;;;;;0.50;0.30;;;23.40;52.00;;;;;;6142519;28;20141;-43
2022/06/25 04:20:10;;;;;;;0.40;0.20;;;23.40;51.90;;;;;;6124514;28;20161;-43
2022/06/25 04:23:13;;;;;;;0.40;0.20;;;22.80;51.60;;;;;;6143682;28;20057;-43
2022/06/25 04:26:17;;;;;;;0.75;0.35;;;23.40;52.00;;;;;;6139322;28;21033;-46
2022/06/25 04:29:18;;;;;;;0.45;0.30;;;23.50;52.00;;;;;;6143513;28;20461;-46
2022/06/25 04:32:28;;;;;;;0.28;0.20;;;23.40;52.00;;;;;;6140549;28;20524;-46
2022/06/25 04:35:45;;;;;;;0.30;0.20;;;23.40;52.00;;;;;;6127629;28;20156;-47
2022/06/25 04:39:07;;;;;;;0.30;0.20;;;23.30;52.00;;;;;;6142837;28;20332;-43
2022/06/25 04:42:09;;;;;;;0.77;0.10;;;23.30;51.90;;;;;;6140885;28;20826;-46
2022/06/25 04:45:16;;;;;;;0.47;0.20;;;23.40;52.00;;;;;;6140564;28;20117;-44
2022/06/25 04:48:34;;;;;;;0.77;0.20;;;23.30;52.00;;;;;;6139781;28;20108;-47
2022/06/25 04:51:46;;;;;;;0.30;0.20;;;23.30;52.00;;;;;;6139297;28;20420;-43
2022/06/25 04:54:49;;;;;;;0.30;0.20;;;23.30;52.00;;;;;;6138032;28;20422;-46
2022/06/25 04:57:53;;;;;;;0.30;0.20;;;23.40;52.00;;;;;;6138437;28;20034;-43
2022/06/25 05:01:06;;;;;;;0.63;0.30;;;23.30;52.00;;;;;;6137110;28;20541;-42
2022/06/25 05:04:09;;;;;;;0.38;0.15;;;23.20;52.00;;;;;;6141445;28;20046;-45
2022/06/25 05:07:10;;;;;;;0.20;0.10;;;23.30;52.00;;;;;;6143161;28;20241;-47
2022/06/25 05:10:13;;;;;;;0.80;0.28;;;23.40;52.10;;;;;;6141072;28;20065;-44
2022/06/25 05:13:15;;;;;;;0.20;0.20;;;23.20;52.00;;;;;;6138640;28;20050;-43
2022/06/25 05:16:20;;;;;;;0.47;0.30;;;23.50;52.20;;;;;;6140855;28;20791;-44
2022/06/25 05:19:23;;;;;;;0.68;0.25;;;23.30;52.10;;;;;;6142460;28;20635;-45
2022/06/25 05:22:25;;;;;;;0.43;0.20;;;23.30;52.10;;;;;;6141307;28;20065;-43
2022/06/25 05:25:28;;;;;;;0.47;0.30;;;23.30;52.10;;;;;;6140732;28;20053;-44
2022/06/25 05:28:30;;;;;;;0.60;0.20;;;23.30;52.10;;;;;;6139757;28;20455;-45
2022/06/25 05:31:32;;;;;;;0.52;0.20;;;23.30;52.20;;;;;;6140660;28;20547;-44
2022/06/25 05:34:33;;;;;;;0.52;0.28;;;23.30;52.20;;;;;;6138290;28;20354;-44
2022/06/25 05:37:35;;;;;;;0.28;0.13;;;23.30;52.20;;;;;;6140276;28;20927;-43
2022/06/25 05:40:38;;;;;;;0.40;0.20;;;23.30;52.30;;;;;;6139122;28;20898;-42
2022/06/25 05:43:40;;;;;;;0.40;0.20;;;23.30;52.30;;;;;;6139090;28;20506;-46
2022/06/25 05:46:42;;;;;;;0.50;0.20;;;23.30;52.40;;;;;;6139090;28;20090;-44
2022/06/25 05:49:43;;;;;;;0.50;0.20;;;23.40;52.40;;;;;;6138767;28;20342;-45
2022/06/25 05:52:45;;;;;;;0.40;0.20;;;23.30;52.40;;;;;;6135880;28;20657;-43
2022/06/25 05:55:47;;;;;;;0.30;0.30;;;23.30;52.40;;;;;;6138260;28;20083;-43
2022/06/25 05:58:49;;;;;;;0.80;0.30;;;23.30;52.50;;;;;;6128463;28;20053;-46
2022/06/25 06:01:51;;;;;;;0.60;0.30;;;23.30;52.60;;;;;;6137254;28;20856;-43
2022/06/25 06:04:53;;;;;;;0.38;0.20;;;23.30;52.50;;;;;;6137376;28;20537;-44
2022/06/25 06:07:55;;;;;;;0.45;0.38;;;23.30;52.60;;;;;;6134015;28;20135;-45
2022/06/25 06:10:56;;;;;;;0.17;0.10;;;23.20;52.60;;;;;;6136772;28;20034;-44
2022/06/25 06:13:58;;;;;;;;;;;23.30;52.70;;;;;;6133533;28;20390;-44
2022/06/25 06:17:00;;;;;;;0.40;0.20;;;23.30;52.70;;;;;;6133177;28;19937;-46
2022/06/25 06:20:01;;;;;;;0.40;0.22;;;23.40;52.70;;;;;;6131210;28;20070;-42
2022/06/25 06:23:03;;;;;;;0.75;0.35;;;23.30;52.80;;;;;;6133270;28;20598;-47
2022/06/25 06:26:05;;;;;;;0.65;0.10;;;23.40;52.90;;;;;;6130746;28;20160;-44
2022/06/25 06:29:07;;;;;;;0.60;0.22;;;23.30;52.90;;;;;;6132557;28;20168;-45
2022/06/25 06:32:09;;;;;;;0.60;0.22;;;23.30;52.90;;;;;;6133949;28;20039;-43
2022/06/25 06:35:10;;;;;;;0.47;0.20;;;23.40;53.00;;;;;;6131866;28;20096;-43
2022/06/25 06:38:12;;;;;;;2.50;0.25;;;23.30;52.90;;;;;;6131156;28;20440;-45
2022/06/25 06:41:13;;;;;;;;;;;23.30;53.00;;;;;;6134558;28;20156;-46
2022/06/25 06:44:16;;;;;;;0.68;0.20;;;23.30;53.00;;;;;;6119768;28;20225;-44
2022/06/25 06:47:17;;;;;;;0.60;0.20;;;23.40;53.00;;;;;;6131321;28;20449;-43
2022/06/25 06:50:19;;;;;;;0.82;0.30;;;23.30;53.10;;;;;;6133660;28;20042;-44
2022/06/25 06:53:21;;;;;;;0.43;0.20;;;23.30;53.10;;;;;;6122338;28;20318;-42
2022/06/25 06:56:23;;;;;;;0.77;0.38;;;23.40;53.20;;;;;;6120241;28;20097;-47
2022/06/25 06:59:26;;;;;;;0.20;0.10;;;23.40;53.20;;;;;;6128430;28;20409;-43
2022/06/25 07:02:28;;;;;;;1.13;0.20;;;23.30;53.10;;;;;;6126589;28;20469;-47
2022/06/25 07:05:30;;;;;;;1.02;0.50;;;23.40;53.20;;;;;;6129509;28;20469;-44
2022/06/25 07:08:31;;;;;;;0.50;0.20;;;23.40;53.20;;;;;;6128403;28;20273;-44
2022/06/25 07:11:33;;;;;;;1.02;0.40;;;23.30;53.20;;;;;;6127778;28;20599;-42
2022/06/25 07:14:35;;;;;;;0.80;0.30;;;23.40;53.20;;;;;;6128857;28;20336;-43
2022/06/25 07:17:36;;;;;;;0.47;0.25;;;23.50;53.30;;;;;;6126674;28;20115;-44
2022/06/25 07:20:39;;;;;;;0.40;0.20;;;23.50;53.30;;;;;;6132193;28;20035;-46
2022/06/25 07:23:41;;;;;;;0.45;0.20;;;23.60;53.30;;;;;;6132826;28;20061;-46
2022/06/25 07:26:43;;;;;;;0.55;0.30;;;23.50;53.30;;;;;;6129719;28;20145;-44
2022/06/25 07:29:45;;;;;;;0.75;0.40;;;23.50;53.30;;;;;;6136591;28;20119;-46
2022/06/25 07:32:46;;;;;;;0.45;0.20;;;23.70;53.30;;;;;;6134632;28;21019;-43
2022/06/25 07:35:48;;;;;;;0.50;0.38;;;23.50;53.20;;;;;;6134089;28;20061;-43
2022/06/25 07:38:49;;;;;;;;;;;23.60;53.30;;;;;;6131953;28;20494;-43
2022/06/25 07:41:51;;;;;;;0.43;0.13;;;23.60;53.30;;;;;;6133335;28;20044;-45
2022/06/25 07:44:53;;;;;;;0.98;0.40;;;23.60;53.30;;;;;;6135133;28;20229;-43
2022/06/25 07:47:54;;;;;;;0.40;0.20;;;23.60;53.40;;;;;;6134898;28;20049;-46
2022/06/25 07:54:13;;;;;;;0.38;0.22;;;23.60;53.50;;;;;;6136768;28;20111;-45
2022/06/25 07:57:15;;;;;;;0.50;0.40;;;23.70;53.50;;;;;;6137069;28;20400;-44
2022/06/25 08:00:18;;;;;;;0.80;0.38;;;23.60;53.60;;;;;;6137223;28;20125;-44
2022/06/25 08:03:19;;;;;;;0.22;0.20;;;23.60;53.60;;;;;;6127490;28;20324;-45
2022/06/25 08:06:21;;;;;;;0.22;0.13;;;23.50;53.60;;;;;;6122195;28;20188;-44
2022/06/25 08:09:23;;;;;;;0.30;0.20;;;23.60;53.70;;;;;;6132203;28;20082;-42
2022/06/25 08:12:24;;;;;;;0.47;0.20;;;23.50;53.70;;;;;;6124335;28;20976;-43
2022/06/25 08:15:27;;;;;;;0.40;0.20;;;23.60;53.80;;;;;;6133605;28;20061;-46
2022/06/25 08:18:28;;;;;;;0.10;0.10;;;23.60;53.90;;;;;;6134862;28;20047;-46
2022/06/25 08:21:30;;;;;;;0.90;0.52;;;23.60;53.90;;;;;;6134101;28;20555;-44
2022/06/25 08:24:32;;;;;;;0.35;0.17;;;23.60;54.00;;;;;;6132105;28;20050;-45
2022/06/25 08:27:33;;;;;;;0.17;0.17;;;23.70;54.10;;;;;;6131045;28;20073;-44
2022/06/25 08:30:36;;;;;;;0.50;0.32;;;23.70;54.20;;;;;;6132090;28;21259;-43
2022/06/25 08:33:38;;;;;;;0.70;0.30;;;23.80;54.30;;;;;;6134298;28;20413;-46
2022/06/25 08:36:39;;;;;;;0.43;0.28;;;23.70;54.30;;;;;;6130440;28;20211;-44
2022/06/25 08:39:41;;;;;;;0.40;0.20;;;23.80;54.40;;;;;;6120081;28;20981;-45
2022/06/25 08:42:42;;;;;;;0.35;0.20;;;23.80;54.40;;;;;;6131296;28;20153;-42
2022/06/25 08:45:45;;;;;;;0.50;0.30;;;23.70;54.50;;;;;;6132804;28;20050;-45
2022/06/25 08:48:49;;;;;;;0.55;0.25;;;23.70;54.50;;;;;;6132610;28;20820;-42
2022/06/25 08:51:52;;;;;;;0.30;0.22;;;23.70;54.60;;;;;;6132224;28;20514;-43
2022/06/25 08:54:55;;;;;;;0.65;0.20;;;23.70;54.60;;;;;;6101205;28;20881;-45
2022/06/25 08:57:57;;;;;;;0.30;0.25;;;23.70;54.70;;;;;;6129002;28;20486;-46
2022/06/25 09:00:59;;;;;;;0.30;0.20;;;23.70;54.70;;;;;;6134689;28;20041;-42
2022/06/25 09:04:01;;;;;;;0.68;0.30;;;23.80;54.80;;;;;;6128082;28;20145;-44
2022/06/25 09:07:11;;;;;;;0.35;0.20;;;23.80;54.80;;;;;;6133994;28;20053;-42
2022/06/25 09:10:18;;;;;;;0.63;0.30;;;23.70;54.80;;;;;;6133689;28;20050;-44
2022/06/25 09:13:27;;;;;;;0.75;0.30;;;23.80;54.90;;;;;;6132608;28;20085;-45
2022/06/25 09:16:30;;;;;;;0.20;0.20;;;23.70;54.80;;;;;;6134946;28;20086;-45
2022/06/25 09:19:34;;;;;;;0.20;0.20;;;23.80;54.80;;;;;;6133073;28;20078;-42
2022/06/25 09:22:36;;;;;;;0.50;0.20;;;23.90;54.80;;;;;;6132314;28;20042;-44
2022/06/25 09:25:41;;;;;;;0.40;0.30;;;23.80;54.70;;;;;;6132754;28;20038;-43
2022/06/25 09:28:44;;;;;;;0.75;0.10;;;23.80;54.70;;;;;;6134665;28;20378;-44
2022/06/25 09:31:47;;;;;;;0.85;0.20;;;23.90;54.70;;;;;;6134091;28;20493;-46
2022/06/25 09:34:48;;;;;;;0.30;0.20;;;23.90;54.50;;;;;;6130924;28;20465;-45
2022/06/25 09:37:50;;;;;;;0.30;0.28;;;23.80;54.40;;;;;;6128739;28;20330;-43
2022/06/25 09:40:53;;;;;;;0.60;0.17;;;23.90;54.30;;;;;;6129130;28;20345;-45
2022/06/25 09:43:55;;;;;;;0.38;0.30;;;23.90;54.20;;;;;;6133052;28;20176;-43
2022/06/25 09:46:58;;;;;;;0.93;0.30;;;23.80;54.20;;;;;;6121501;28;20124;-44
2022/06/25 09:50:05;;;;;;;0.20;0.20;;;23.80;54.00;;;;;;6119836;28;20073;-44
2022/06/25 09:53:07;;;;;;;0.40;0.20;;;23.80;53.90;;;;;;6130154;28;20141;-46
2022/06/25 09:56:09;;;;;;;0.20;0.20;;;23.80;53.90;;;;;;6131628;28;20517;-46
2022/06/25 09:59:11;;;;;;;0.40;0.30;;;23.80;53.70;;;;;;6133087;28;20377;-44
2022/06/25 10:02:14;;;;;;;0.40;0.30;;;23.90;53.70;;;;;;6130787;28;20291;-44
2022/06/25 10:05:18;;;;;;;0.30;0.20;;;23.80;53.50;;;;;;6131286;28;20042;-45
2022/06/25 10:08:21;;;;;;;0.40;0.30;;;23.90;53.50;;;;;;6132166;28;20042;-45
2022/06/25 10:11:25;;;;;;;0.52;0.30;;;23.90;53.30;;;;;;6130665;28;20386;-44
2022/06/25 10:14:27;;;;;;;0.40;0.20;;;23.90;53.20;;;;;;6119472;28;20104;-45
2022/06/25 10:17:30;;;;;;;0.40;0.20;;;23.90;53.00;;;;;;6133072;28;20153;-43
2022/06/25 10:20:32;;;;;;;0.60;0.40;;;23.90;52.80;;;;;;6132966;28;20058;-49
2022/06/25 10:23:35;;;;;;;1.17;0.57;;;23.90;52.60;;;;;;6130763;28;20034;-45
2022/06/25 10:26:37;;;;;;;1.55;0.30;;;24.00;52.50;;;;;;6131909;28;20145;-43
2022/06/25 10:29:38;;;;;;;0.40;0.22;;;23.90;52.30;;;;;;6134434;28;20440;-47
2022/06/25 10:32:44;;;;;;;0.35;0.30;;;23.90;52.40;;;;;;6128729;28;20594;-45
2022/06/25 10:35:45;;;;;;;1.23;0.47;;;23.90;51.90;;;;;;6117278;28;20138;-46
2022/06/25 10:38:47;;;;;;;0.80;0.40;;;23.80;51.80;;;;;;6129939;28;20082;-42
2022/06/25 10:45:49;;;;;;;0.40;0.20;;;24.00;51.60;;;;;;6107323;28;20345;-44
2022/06/25 10:48:56;;;;;;;0.98;0.30;;;24.00;51.40;;;;;;6117435;28;20732;-44
2022/06/25 10:51:58;;;;;;;1.17;0.45;;;24.00;51.30;;;;;;6131594;28;20169;-42
2022/06/25 10:55:02;;;;;;;0.85;0.65;;;24.00;51.20;;;;;;6126124;28;20353;-43
2022/06/25 10:58:10;;;;;;;1.08;0.28;;;24.00;51.10;;;;;;6132329;28;20042;-44
2022/06/25 11:01:23;;;;;;;0.57;0.30;;;24.10;51.00;;;;;;6131588;28;20266;-43
2022/06/25 11:04:27;;;;;;;0.55;0.35;;;24.10;50.90;;;;;;6119173;28;20232;-42
2022/06/25 11:07:28;;;;;;;0.70;0.20;;;24.10;50.90;;;;;;6131606;28;20383;-47
2022/06/25 11:10:34;;;;;;;0.63;0.32;;;24.20;50.90;;;;;;6127611;28;20824;-44
2022/06/25 11:13:40;;;;;;;0.77;0.30;;;24.10;50.60;;;;;;6127099;28;20337;-45
2022/06/25 11:16:41;;;;;;;1.05;0.50;;;24.10;50.50;;;;;;6128188;28;20502;-45
2022/06/25 11:19:43;;;;;;;0.98;0.40;;;24.10;50.40;;;;;;6132290;28;20404;-43
2022/06/25 11:22:45;;;;;;;1.00;0.30;;;24.20;50.40;;;;;;6132268;28;20156;-48
2022/06/25 11:29:04;;;;;;;0.35;0.35;;;24.20;50.40;;;;;;6131481;28;20141;-44
2022/06/25 11:32:08;;;;;;;0.60;0.40;;;24.10;50.30;;;;;;6128044;28;20760;-43
2022/06/25 11:35:10;;;;;;;0.60;0.30;;;24.30;50.40;;;;;;6130047;28;20402;-45
2022/06/25 11:38:14;;;;;;;1.05;0.20;;;24.20;50.30;;;;;;6126828;28;20042;-46
2022/06/25 11:41:20;;;;;;;0.45;0.30;;;24.20;50.40;;;;;;6110692;28;20507;-43
2022/06/25 11:44:22;;;;;;;0.60;0.28;;;24.10;50.30;;;;;;6133380;28;20054;-43
2022/06/25 11:47:26;;;;;;;0.60;0.28;;;24.20;50.30;;;;;;6129089;28;20145;-47
2022/06/25 11:50:29;;;;;;;0.80;0.40;;;24.30;50.30;;;;;;6116982;28;20698;-43
2022/06/25 11:53:30;;;;;;;0.75;0.30;;;24.30;50.30;;;;;;6131132;28;20661;-46
2022/06/25 11:56:32;;;;;;;1.67;0.40;;;24.20;50.10;;;;;;6114064;28;20050;-46
2022/06/25 11:59:37;;;;;;;0.68;0.30;;;24.30;50.00;;;;;;6131529;28;20038;-44
2022/06/25 12:02:39;;;;;;;0.82;0.40;;;24.20;49.90;;;;;;6114429;28;20854;-46
2022/06/25 12:05:42;;;;;;;0.60;0.40;;;24.20;49.80;;;;;;6129434;28;20048;-44
2022/06/25 12:08:44;;;;;;;1.20;0.40;;;24.20;49.70;;;;;;6130801;28;20116;-45
2022/06/25 12:11:51;;;;;;;1.13;0.52;;;24.20;49.60;;;;;;6126206;28;20141;-48
2022/06/25 12:14:55;;;;;;;0.75;0.30;;;24.30;49.60;;;;;;6124525;28;20481;-44
2022/06/25 12:18:03;;;;;;;1.00;0.30;;;24.30;49.50;;;;;;6128172;28;20089;-45
2022/06/25 12:21:06;;;;;;;0.50;0.50;;;24.20;49.40;;;;;;6127052;28;20419;-43
2022/06/25 12:24:12;;;;;;;1.00;0.40;;;24.30;49.50;;;;;;6112321;28;20145;-44
2022/06/25 12:27:14;;;;;;;0.70;0.30;;;24.30;49.30;;;;;;6109006;28;20085;-45
2022/06/25 12:30:22;;;;;;;1.42;0.50;;;24.30;49.30;;;;;;6127957;28;20721;-43
2022/06/25 12:33:28;;;;;;;0.80;0.40;;;24.20;49.20;;;;;;6124805;28;20077;-45
2022/06/25 12:36:34;;;;;;;0.70;0.30;;;24.30;49.20;;;;;;6124594;28;20053;-45
2022/06/25 12:39:37;;;;;;;0.30;0.30;;;24.30;49.10;;;;;;6113382;28;20050;-43
2022/06/25 12:42:54;;;;;;;0.80;0.40;;;24.20;49.00;;;;;;6123115;28;20490;-44
2022/06/25 12:45:55;;;;;;;0.43;0.30;;;24.30;48.90;;;;;;6114180;28;20074;-43
2022/06/25 12:49:01;;;;;;;0.47;0.40;;;24.40;48.90;;;;;;6129159;28;20108;-46
2022/06/25 12:52:04;;;;;;;0.52;0.50;;;24.30;48.70;;;;;;6127740;28;20042;-47
2022/06/25 12:55:07;;;;;;;0.77;0.50;;;24.40;48.70;;;;;;6131407;28;20250;-45
2022/06/25 12:58:12;;;;;;;2.17;0.50;;;24.40;48.60;;;;;;6114862;28;20211;-45
2022/06/25 13:01:18;;;;;;;0.40;0.38;;;24.40;48.50;;;;;;6117260;28;20042;-44
2022/06/25 13:04:20;;;;;;;0.60;0.40;;;24.40;48.40;;;;;;6107560;28;20042;-46
2022/06/25 13:07:22;;;;;;;0.80;0.50;;;24.40;48.40;;;;;;6124165;28;21479;-45
2022/06/25 13:10:24;;;;;;;1.25;0.50;;;24.40;48.40;;;;;;6128366;28;20137;-46
2022/06/25 13:13:25;;;;;;;0.55;0.38;;;24.30;48.30;;;;;;6128681;28;20046;-44
2022/06/25 13:16:27;;;;;;;0.80;0.40;;;24.50;48.40;;;;;;6127722;28;20046;-42
2022/06/25 13:19:29;;;;;;;0.70;0.40;;;24.40;48.60;;;;;;6126368;28;20038;-49
2022/06/25 13:22:32;;;;;;;1.15;0.50;;;24.40;48.70;;;;;;6128317;28;20035;-43
2022/06/25 13:25:33;;;;;;;0.85;0.40;;;24.40;48.90;;;;;;6129060;28;20050;-44
2022/06/25 13:28:35;;;;;;;0.73;0.50;;;24.30;48.80;;;;;;6127681;28;20405;-44
2022/06/25 13:31:37;;;;;;;0.63;0.30;;;24.30;48.80;;;;;;6124339;28;20378;-48
2022/06/25 13:34:48;;;;;;;0.52;0.40;;;24.40;48.80;;;;;;6110291;28;20160;-47
2022/06/25 13:37:50;;;;;;;1.02;0.40;;;24.40;48.80;;;;;;6113481;28;20109;-43
2022/06/25 13:40:52;;;;;;;0.75;0.40;;;24.30;48.70;;;;;;6122951;28;20770;-43
2022/06/25 13:43:54;;;;;;;0.65;0.32;;;24.30;48.70;;;;;;6127465;28;20611;-43
2022/06/25 13:46:55;;;;;;;0.52;0.30;;;24.30;48.80;;;;;;6126916;28;20153;-47
2022/06/25 13:49:57;;;;;;;0.32;0.22;;;24.30;48.70;;;;;;6124931;28;20201;-43
2022/06/25 13:52:59;;;;;;;0.85;0.30;;;24.40;48.60;;;;;;6125923;28;20144;-43
2022/06/25 13:56:01;;;;;;;0.43;0.38;;;24.30;48.10;;;;;;6127092;28;20458;-47
2022/06/25 13:59:03;;;;;;;0.30;0.13;;;24.30;47.60;;;;;;6126947;28;20129;-44
2022/06/25 14:02:05;;;;;;;0.45;0.30;;;24.30;46.90;;;;;;6123622;28;20070;-45
2022/06/25 14:05:07;;;;;;;0.63;0.32;;;24.30;46.20;;;;;;6126565;28;20330;-47
2022/06/25 14:08:09;;;;;;;0.30;0.30;;;24.30;45.50;;;;;;6129654;28;20548;-44
2022/06/25 14:11:12;;;;;;;0.47;0.28;;;24.20;44.90;;;;;;6123624;28;20412;-48
2022/06/25 14:14:13;;;;;;;0.40;0.30;;;24.20;44.50;;;;;;6106789;28;20050;-44
2022/06/25 14:17:15;;;;;;;0.68;0.55;;;24.30;44.20;;;;;;6129672;28;20161;-47
2022/06/25 14:20:17;;;;;;;0.63;0.25;;;24.30;43.90;;;;;;6128746;28;20413;-44
2022/06/25 14:23:19;;;;;;;0.80;0.30;;;24.20;43.70;;;;;;6126036;28;20388;-45
2022/06/25 14:26:21;;;;;;;0.90;0.43;;;24.30;43.50;;;;;;6117987;28;20755;-45
2022/06/25 14:29:22;;;;;;;1.08;0.30;;;24.30;43.40;;;;;;6127382;28;20047;-44
2022/06/25 14:32:24;;;;;;;0.28;0.20;;;24.30;43.30;;;;;;6129271;28;20157;-45
2022/06/25 14:35:26;;;;;;;0.65;0.20;;;24.30;43.20;;;;;;6133943;28;20463;-45
2022/06/25 14:44:57;;;;;;;0.30;0.20;;;24.20;42.90;;;;;;6132514;28;20082;-46
2022/06/25 14:47:59;;;;;;;0.30;0.20;;;24.30;42.90;;;;;;6134659;28;20555;-43
2022/06/25 14:51:01;;;;;;;0.40;0.20;;;24.20;42.90;;;;;;6129989;28;20248;-43
2022/06/25 14:54:04;;;;;;;0.25;0.20;;;24.20;42.80;;;;;;6129809;28;20051;-45
2022/06/25 14:57:06;;;;;;;0.20;0.10;;;24.20;42.70;;;;;;6129044;28;20050;-49
2022/06/25 15:00:09;;;;;;;0.32;0.20;;;24.20;42.80;;;;;;6130615;28;20485;-46
2022/06/25 15:03:11;;;;;;;0.40;0.20;;;24.20;42.80;;;;;;6132036;28;20129;-45
2022/06/25 15:06:13;;;;;;;0.20;0.17;;;24.20;42.60;;;;;;6133014;28;20427;-45
2022/06/25 15:09:15;;;;;;;0.38;0.20;;;24.20;42.50;;;;;;6116404;28;20061;-44
2022/06/25 15:12:16;;;;;;;0.35;0.25;;;24.30;42.30;;;;;;6130602;28;20300;-45
2022/06/25 15:15:18;;;;;;;0.40;0.20;;;24.20;42.10;;;;;;6119675;28;20138;-44
2022/06/25 15:18:20;;;;;;;0.28;0.20;;;24.20;41.90;;;;;;6134442;28;20383;-44
2022/06/25 15:21:21;;;;;;;0.25;0.20;;;24.20;41.60;;;;;;6128852;28;20542;-44
2022/06/25 15:24:24;;;;;;;0.40;0.20;;;24.20;41.40;;;;;;6129766;28;20173;-45
2022/06/25 15:27:25;;;;;;;0.30;0.20;;;24.30;41.40;;;;;;6130027;28;20680;-45
2022/06/25 15:30:27;;;;;;;0.40;0.20;;;24.20;41.30;;;;;;6130402;28;20943;-45
2022/06/25 15:33:28;;;;;;;0.20;0.10;;;24.20;41.30;;;;;;6129290;28;20863;-47
2022/06/25 15:36:31;;;;;;;0.30;0.17;;;24.10;41.40;;;;;;6127136;28;20789;-42
2022/06/25 15:39:33;;;;;;;0.68;0.30;;;24.20;41.50;;;;;;6131682;28;20050;-44
2022/06/25 15:42:35;;;;;;;0.30;0.20;;;24.20;41.60;;;;;;6125556;28;20077;-43
2022/06/25 15:45:36;;;;;;;0.10;0.10;;;24.30;41.70;;;;;;6111583;28;21438;-45
2022/06/25 15:48:38;;;;;;;0.30;0.10;;;24.10;41.70;;;;;;6132365;28;20556;-46
2022/06/25 15:51:40;;;;;;;0.30;0.10;;;24.20;42.10;;;;;;6127665;28;20088;-44
2022/06/25 15:54:42;;;;;;;0.20;0.10;;;24.20;41.80;;;;;;6131706;28;20109;-45
2022/06/25 15:57:45;;;;;;;0.10;0.10;;;24.20;41.90;;;;;;6135325;28;20589;-45
2022/06/25 16:00:46;;;;;;;0.50;0.20;;;24.20;42.00;;;;;;6130878;28;20046;-48
2022/06/25 16:03:48;;;;;;;0.22;0.10;;;24.20;42.10;;;;;;6129966;28;20276;-46
2022/06/25 16:06:50;;;;;;;0.20;0.20;;;24.20;42.20;;;;;;6127609;28;20055;-44
2022/06/25 16:09:52;;;;;;;0.38;0.20;;;24.20;42.20;;;;;;6127626;28;20478;-43
2022/06/25 16:12:54;;;;;;;0.17;0.10;;;24.20;42.40;;;;;;6121457;28;20153;-43
2022/06/25 16:15:55;;;;;;;0.20;0.10;;;24.20;42.60;;;;;;6128656;28;20042;-46
2022/06/25 16:18:57;;;;;;;0.10;0.10;;;24.20;42.60;;;;;;6117872;28;20046;-45